Enterprise, Kansas
Current Conditions -  °F | °C
As of 2:58 PM on Thursday 27 Nov 2014 (Local Time) from KFRI Reporting Station
Clear Clear  
Wind Chill: 39°   Ceiling: Unl
Heat Index: 44°   Visibility: 10mi
Dew Point: 13°   Wind: 12mph
Humidity: 28%   Direction: 190°S
Pressure: 30.33"   Gusts: NA
Location:  38.9°N, 97.12°W
Report Text: KFRI 272058Z AUTO 19010KT 10SM CLR 07/M10 A3033 RMK AO2 DZB2044 SLP280 P0000 60000 T00691105 57044
Loading
Personal Weather Stations






























Interactive Weather Map New forecast layout! Learn more

10-Day Weather Forecast

Advertisements
Track Severe Weather on mobile